Tuesday, January 17, 2017, 3:50 AM EST

KSHD, Staunton / Shenandoah

Location: Weyers Cave, VA, United States Lat: 38.267
Local Time: 3:50 AM EST ( 8:50 GMT) Lon: -78.9
Time Zone: US/Eastern Elev: 1200 ft

Show me the last for .
Show Decoded

2017-01-17 03:35 METAR KSHD 170835Z AUTO 00000KT 10SM -RA OVC070 05/04 A3021 RMK AO2 T00530042 =
2017-01-17 03:15 METAR KSHD 170815Z AUTO 00000KT 10SM SCT070 OVC080 05/04 A3022 RMK AO2 T00510041
                 =
2017-01-17 02:55 METAR KSHD 170755Z AUTO 00000KT 10SM OVC075 05/04 A3022 RMK AO2 T00480040 =
2017-01-17 02:35 METAR KSHD 170735Z AUTO 00000KT 7SM BKN085 OVC100 04/04 A3021 RMK AO2 T00410036
                 =
2017-01-17 02:15 METAR KSHD 170715Z AUTO 00000KT 7SM BKN100 04/04 A3022 RMK AO2 T00430035 =
2017-01-17 01:55 METAR KSHD 170655Z AUTO 00000KT 10SM SCT110 05/04 A3022 RMK AO2 T00500040 =
2017-01-17 01:35 METAR KSHD 170635Z AUTO 00000KT 10SM CLR 05/04 A3022 RMK AO2 T00500040 =
2017-01-17 01:15 METAR KSHD 170615Z AUTO 00000KT 10SM CLR 05/04 A3023 RMK AO2 T00480037 =
2017-01-17 00:55 METAR KSHD 170555Z AUTO 14003KT 10SM SCT080 05/04 A3023 RMK AO2 T00500038 10059
                 20047 400700020 =
2017-01-17 00:35 METAR KSHD 170535Z AUTO 16003KT 10SM SCT080 05/04 A3024 RMK AO2 T00510040 =
2017-01-17 00:15 METAR KSHD 170515Z AUTO 16003KT 10SM SCT080 05/04 A3025 RMK AO2 T00520040 =
2017-01-16 23:55 METAR KSHD 170455Z AUTO 16003KT 10SM SCT080 05/04 A3026 RMK AO2 T00500040 =
2017-01-16 23:35 METAR KSHD 170435Z AUTO 17006KT 10SM SCT012 SCT016 BKN080 05/04 A3027 RMK AO2
                 T00520041 =
2017-01-16 23:15 METAR KSHD 170415Z AUTO 17005KT 10SM BKN012 BKN090 05/04 A3028 RMK AO2 T00530042
                 =
2017-01-16 22:55 METAR KSHD 170355Z AUTO 19006KT 10SM SCT090 05/04 A3028 RMK AO2 T00500040 =
2017-01-16 22:35 METAR KSHD 170335Z AUTO 20003KT 10SM SCT013 BKN090 05/04 A3028 RMK AO2 T00500040
                 =
2017-01-16 22:15 METAR KSHD 170315Z AUTO 23004KT 10SM SCT070 OVC090 05/04 A3028 RMK AO2 T00500039
                 =
2017-01-16 21:55 METAR KSHD 170255Z AUTO 00000KT 10SM OVC070 06/04 A3028 RMK AO2 T00560042 =
2017-01-16 21:35 METAR KSHD 170235Z AUTO 19003KT 10SM OVC060 06/04 A3029 RMK AO2 T00580043 =
2017-01-16 21:15 METAR KSHD 170215Z AUTO 18005KT 10SM OVC060 06/04 A3029 RMK AO2 T00570042 =
2017-01-16 20:55 METAR KSHD 170155Z AUTO 18005KT 10SM SCT050 SCT070 OVC080 06/04 A3030 RMK AO2
                 T00570041 =
2017-01-16 20:35 METAR KSHD 170135Z AUTO 17004KT 10SM SCT014 SCT060 OVC090 06/04 A3030 RMK AO2
                 T00570040 =
2017-01-16 20:15 METAR KSHD 170115Z AUTO 17005KT 10SM BKN014 SCT035 OVC075 06/04 A3030 RMK AO2
                 LTG DSNT W T00560040 =
2017-01-16 19:55 METAR KSHD 170055Z AUTO 18006KT 10SM BKN060 OVC075 06/04 A3031 RMK AO2 T00560040
                 =
2017-01-16 19:35 METAR KSHD 170035Z AUTO 18006KT 10SM SCT018 BKN060 OVC075 06/04 A3031 RMK AO2
                 T00560040 =
2017-01-16 19:15 METAR KSHD 170015Z AUTO 18005KT 10SM SCT012 BKN017 OVC075 06/04 A3031 RMK AO2
                 T00560040 =
2017-01-16 18:55 METAR KSHD 162355Z AUTO 20005KT 10SM BKN014 BKN075 OVC100 06/04 A3031 RMK AO2
                 T00550040 10070 20053 =
2017-01-16 18:35 METAR KSHD 162335Z AUTO 19003KT 10SM SCT016 OVC100 06/04 A3031 RMK AO2 T00550040
                 =
2017-01-16 18:15 METAR KSHD 162315Z AUTO 00000KT 10SM SCT012 OVC100 06/04 A3031 RMK AO2 T00550040
                 =
2017-01-16 17:50 METAR KSHD 162250Z AUTO 00000KT 10SM SCT018 BKN100 05/04 A3032 RMK AO2 T00530039
                 =
2017-01-16 17:35 METAR KSHD 162235Z AUTO 19003KT 10SM BKN018 BKN100 06/04 A3032 RMK AO2 T00560039
                 =
2017-01-16 17:15 METAR KSHD 162215Z AUTO 17005KT 10SM BKN018 OVC100 06/04 A3031 RMK AO2 T00610043
                 =
2017-01-16 16:55 METAR KSHD 162155Z AUTO 17004KT 10SM BKN016 OVC100 07/05 A3032 RMK AO2 T00650046
                 =
2017-01-16 16:35 METAR KSHD 162135Z AUTO 18005KT 10SM SCT014 OVC100 07/05 A3032 RMK AO2 T00650046
                 =
2017-01-16 16:15 METAR KSHD 162115Z AUTO 19005KT 10SM OVC100 07/05 A3032 RMK AO2 T00650046 =
2017-01-16 15:55 METAR KSHD 162055Z AUTO 19006KT 10SM OVC100 07/05 A3032 RMK AO2 T00670047 =
2017-01-16 15:35 METAR KSHD 162035Z AUTO 18007KT 10SM SCT016 OVC100 07/05 A3032 RMK AO2 T00650046
                 =
2017-01-16 15:15 METAR KSHD 162015Z AUTO 19007KT 10SM BKN012 BKN016 OVC100 07/05 A3032 RMK AO2
                 T00650046 =
2017-01-16 14:55 METAR KSHD 161955Z AUTO 18008KT 10SM OVC012 07/05 A3032 RMK AO2 T00690047 =
2017-01-16 14:35 METAR KSHD 161935Z AUTO 17009KT 10SM OVC012 07/05 A3031 RMK AO2 T00670046 =
2017-01-16 14:15 METAR KSHD 161915Z AUTO 18007KT 10SM OVC014 07/05 A3031 RMK AO2 T00670047 =
2017-01-16 13:55 METAR KSHD 161855Z AUTO 20007KT 10SM SCT010 OVC016 07/05 A3032 RMK AO2 T00660045
                 =
2017-01-16 13:35 METAR KSHD 161835Z AUTO 19007KT 10SM BKN010 OVC017 07/05 A3033 RMK AO2 T00660046
                 =
2017-01-16 13:15 METAR KSHD 161815Z AUTO 16007KT 10SM OVC010 06/04 A3034 RMK AO2 T00620043 =
2017-01-16 12:55 METAR KSHD 161755Z AUTO 17006KT 10SM OVC012 06/04 A3035 RMK AO2 T00580041 10058
                 20021 =
2017-01-16 12:35 METAR KSHD 161735Z AUTO 18005KT 10SM OVC012 06/04 A3037 RMK AO2 T00570040 =
2017-01-16 12:15 METAR KSHD 161715Z AUTO 17004KT 10SM OVC012 06/04 A3037 RMK AO2 T00560039 =
2017-01-16 11:55 METAR KSHD 161655Z AUTO 20006KT 10SM BKN012 OVC024 05/04 A3039 RMK AO2 T00540038
                 =
2017-01-16 11:35 METAR KSHD 161635Z AUTO 19005KT 10SM SCT008 OVC026 05/04 A3040 RMK AO2 T00530038
                 =
2017-01-16 11:15 METAR KSHD 161615Z AUTO 19005KT 10SM SCT008 OVC026 06/04 A3041 RMK AO2 T00560040
                 =
2017-01-16 10:55 METAR KSHD 161555Z AUTO 19005KT 10SM SCT010 OVC028 05/04 A3042 RMK AO2 T00510036
                 =
2017-01-16 10:35 METAR KSHD 161535Z AUTO 17004KT 10SM BKN010 BKN013 OVC037 05/04 A3043 RMK AO2
                 T00460037 =
2017-01-16 10:15 METAR KSHD 161515Z AUTO 00000KT 7SM BKN012 OVC037 04/03 A3043 RMK AO2 T00410032
                 =
2017-01-16 09:55 METAR KSHD 161455Z AUTO 00000KT 5SM BR SCT006 OVC012 04/03 A3043 RMK AO2
                 T00370030 =
2017-01-16 09:35 METAR KSHD 161435Z AUTO 00000KT 5SM BR BKN006 OVC012 04/03 A3042 RMK AO2
                 T00350029 =
2017-01-16 09:15 METAR KSHD 161415Z AUTO 00000KT 7SM BKN006 OVC012 03/02 A3043 RMK AO2 T00320024
                 =
2017-01-16 08:55 METAR KSHD 161355Z AUTO 00000KT 7SM BKN006 OVC014 03/02 A3042 RMK AO2 T00300020
                 =
2017-01-16 08:35 METAR KSHD 161335Z AUTO 00000KT 7SM SCT006 OVC014 03/02 A3041 RMK AO2 T00260018
                 =
2017-01-16 08:15 METAR KSHD 161315Z AUTO 00000KT 7SM BKN010 OVC014 02/02 A3041 RMK AO2 T00240015
                 =
2017-01-16 07:55 METAR KSHD 161255Z AUTO 00000KT 5SM BR OVC012 02/02 A3040 RMK AO2 T00220016 =
2017-01-16 07:35 METAR KSHD 161235Z AUTO 00000KT 10SM OVC012 02/01 A3040 RMK AO2 T00220013 =
2017-01-16 07:15 METAR KSHD 161215Z AUTO 00000KT 10SM OVC010 02/01 A3040 RMK AO2 T00220010 =
2017-01-16 06:55 METAR KSHD 161155Z AUTO 00000KT 10SM OVC010 02/01 A3040 RMK AO2 60001 70002
                 T00210008 10034 20020 =
2017-01-16 06:35 METAR KSHD 161135Z AUTO 00000KT 10SM OVC008 02/01 A3040 RMK AO2 T00200007 =
2017-01-16 06:15 METAR KSHD 161115Z AUTO 00000KT 10SM OVC008 02/01 A3040 RMK AO2 T00210007 =
2017-01-16 05:55 METAR KSHD 161055Z AUTO 00000KT 10SM OVC008 02/01 A3040 RMK AO2 T00230010 =
2017-01-16 05:35 METAR KSHD 161035Z AUTO 00000KT 10SM OVC008 02/01 A3039 RMK AO2 T00210009 =
2017-01-16 05:15 METAR KSHD 161015Z AUTO 00000KT 10SM OVC008 02/01 A3038 RMK AO2 T00210006 =
2017-01-16 04:55 METAR KSHD 160955Z AUTO 00000KT 10SM OVC008 02/01 A3038 RMK AO2 T00200006 =
2017-01-16 04:35 METAR KSHD 160935Z AUTO 00000KT 10SM OVC008 02/01 A3038 RMK AO2 T00200008 =
2017-01-16 04:15 METAR KSHD 160915Z AUTO 00000KT 10SM OVC010 02/01 A3039 RMK AO2 T00200005 =
2017-01-16 03:55 METAR KSHD 160855Z AUTO 00000KT 10SM OVC010 02/01 A3039 RMK AO2 60001 T00200005
                 =

Support USWX by starting your Amazon purchase here.